sensor_id;sensor_type;location;lat;lon;timestamp;P1;durP1;ratioP1;P2;durP2;ratioP2
43793;SDS011;29414;44.798;20.366;2022-09-17T00:01:04;12.85;;;9.55;;
43793;SDS011;29414;44.798;20.366;2022-09-17T00:05:05;10.10;;;9.10;;
43793;SDS011;29414;44.798;20.366;2022-09-17T00:09:06;9.73;;;8.60;;
43793;SDS011;29414;44.798;20.366;2022-09-17T00:13:06;9.43;;;8.52;;
43793;SDS011;29414;44.798;20.366;2022-09-17T00:17:07;10.15;;;7.78;;
43793;SDS011;29414;44.798;20.366;2022-09-17T00:21:14;8.70;;;7.93;;
43793;SDS011;29414;44.798;20.366;2022-09-17T00:25:15;8.93;;;7.93;;
43793;SDS011;29414;44.798;20.366;2022-09-17T00:29:16;9.88;;;8.80;;
43793;SDS011;29414;44.798;20.366;2022-09-17T00:33:16;9.18;;;8.38;;
43793;SDS011;29414;44.798;20.366;2022-09-17T00:37:20;8.90;;;7.93;;
43793;SDS011;29414;44.798;20.366;2022-09-17T00:41:20;9.45;;;8.50;;
43793;SDS011;29414;44.798;20.366;2022-09-17T00:45:21;9.85;;;9.00;;
43793;SDS011;29414;44.798;20.366;2022-09-17T00:49:23;11.02;;;8.98;;
43793;SDS011;29414;44.798;20.366;2022-09-17T00:53:25;13.10;;;10.65;;
43793;SDS011;29414;44.798;20.366;2022-09-17T00:57:27;15.40;;;9.73;;
43793;SDS011;29414;44.798;20.366;2022-09-17T01:01:28;10.95;;;9.75;;
43793;SDS011;29414;44.798;20.366;2022-09-17T01:05:38;11.85;;;10.25;;
43793;SDS011;29414;44.798;20.366;2022-09-17T01:09:52;9.57;;;8.70;;
43793;SDS011;29414;44.798;20.366;2022-09-17T01:31:06;9.82;;;5.97;;
43793;SDS011;29414;44.798;20.366;2022-09-17T01:35:32;5.80;;;5.25;;
43793;SDS011;29414;44.798;20.366;2022-09-17T01:43:54;4.28;;;3.63;;
43793;SDS011;29414;44.798;20.366;2022-09-17T01:47:57;3.03;;;2.72;;
43793;SDS011;29414;44.798;20.366;2022-09-17T01:51:59;3.58;;;2.00;;
43793;SDS011;29414;44.798;20.366;2022-09-17T01:56:00;3.63;;;1.63;;
43793;SDS011;29414;44.798;20.366;2022-09-17T02:00:03;1.98;;;1.77;;
43793;SDS011;29414;44.798;20.366;2022-09-17T02:04:06;2.80;;;1.30;;
43793;SDS011;29414;44.798;20.366;2022-09-17T02:08:22;1.70;;;0.90;;
43793;SDS011;29414;44.798;20.366;2022-09-17T02:12:27;4.50;;;1.10;;
43793;SDS011;29414;44.798;20.366;2022-09-17T02:16:29;1.80;;;1.13;;
43793;SDS011;29414;44.798;20.366;2022-09-17T02:20:33;7.47;;;2.03;;
43793;SDS011;29414;44.798;20.366;2022-09-17T02:28:55;4.47;;;1.77;;
43793;SDS011;29414;44.798;20.366;2022-09-17T02:32:55;3.83;;;1.40;;
43793;SDS011;29414;44.798;20.366;2022-09-17T02:36:56;1.88;;;0.70;;
43793;SDS011;29414;44.798;20.366;2022-09-17T02:41:11;2.55;;;1.00;;
43793;SDS011;29414;44.798;20.366;2022-09-17T02:53:58;4.05;;;1.42;;
43793;SDS011;29414;44.798;20.366;2022-09-17T02:58:17;1.80;;;1.48;;
43793;SDS011;29414;44.798;20.366;2022-09-17T03:02:21;1.98;;;0.90;;
43793;SDS011;29414;44.798;20.366;2022-09-17T03:06:23;2.42;;;0.90;;
43793;SDS011;29414;44.798;20.366;2022-09-17T03:10:23;2.75;;;1.13;;
43793;SDS011;29414;44.798;20.366;2022-09-17T03:14:24;2.67;;;1.33;;
43793;SDS011;29414;44.798;20.366;2022-09-17T03:18:24;1.52;;;1.40;;
43793;SDS011;29414;44.798;20.366;2022-09-17T03:22:24;2.65;;;1.35;;
43793;SDS011;29414;44.798;20.366;2022-09-17T03:26:25;1.85;;;1.17;;
43793;SDS011;29414;44.798;20.366;2022-09-17T03:30:25;4.50;;;1.70;;
43793;SDS011;29414;44.798;20.366;2022-09-17T03:34:26;3.02;;;1.04;;
43793;SDS011;29414;44.798;20.366;2022-09-17T03:38:26;3.53;;;1.92;;
43793;SDS011;29414;44.798;20.366;2022-09-17T03:42:26;1.33;;;1.23;;
43793;SDS011;29414;44.798;20.366;2022-09-17T03:46:27;2.10;;;1.85;;
43793;SDS011;29414;44.798;20.366;2022-09-17T03:50:27;1.58;;;1.48;;
43793;SDS011;29414;44.798;20.366;2022-09-17T03:54:27;1.92;;;1.55;;
43793;SDS011;29414;44.798;20.366;2022-09-17T03:58:28;1.95;;;1.48;;
43793;SDS011;29414;44.798;20.366;2022-09-17T04:02:29;4.45;;;2.13;;
43793;SDS011;29414;44.798;20.366;2022-09-17T04:06:29;3.22;;;2.47;;
43793;SDS011;29414;44.798;20.366;2022-09-17T04:10:29;2.95;;;1.60;;
43793;SDS011;29414;44.798;20.366;2022-09-17T04:14:30;3.47;;;2.33;;
43793;SDS011;29414;44.798;20.366;2022-09-17T04:18:30;2.35;;;1.95;;
43793;SDS011;29414;44.798;20.366;2022-09-17T04:22:30;2.20;;;1.95;;
43793;SDS011;29414;44.798;20.366;2022-09-17T04:26:31;2.95;;;2.53;;
43793;SDS011;29414;44.798;20.366;2022-09-17T04:30:31;4.20;;;2.13;;
43793;SDS011;29414;44.798;20.366;2022-09-17T04:34:32;2.53;;;1.60;;
43793;SDS011;29414;44.798;20.366;2022-09-17T04:38:32;5.10;;;2.25;;
43793;SDS011;29414;44.798;20.366;2022-09-17T04:42:32;4.22;;;2.55;;
43793;SDS011;29414;44.798;20.366;2022-09-17T04:46:32;2.75;;;2.35;;
43793;SDS011;29414;44.798;20.366;2022-09-17T04:50:33;6.25;;;2.70;;
43793;SDS011;29414;44.798;20.366;2022-09-17T04:54:33;4.25;;;2.58;;
43793;SDS011;29414;44.798;20.366;2022-09-17T04:58:33;4.42;;;3.62;;
43793;SDS011;29414;44.798;20.366;2022-09-17T05:02:34;9.30;;;4.78;;
43793;SDS011;29414;44.798;20.366;2022-09-17T05:06:34;5.70;;;4.70;;
43793;SDS011;29414;44.798;20.366;2022-09-17T05:10:34;5.35;;;4.10;;
43793;SDS011;29414;44.798;20.366;2022-09-17T05:14:35;5.15;;;4.10;;
43793;SDS011;29414;44.798;20.366;2022-09-17T05:18:35;4.80;;;4.22;;
43793;SDS011;29414;44.798;20.366;2022-09-17T05:22:42;7.78;;;4.03;;
43793;SDS011;29414;44.798;20.366;2022-09-17T05:26:43;4.82;;;4.32;;
43793;SDS011;29414;44.798;20.366;2022-09-17T05:30:43;8.55;;;4.90;;
43793;SDS011;29414;44.798;20.366;2022-09-17T05:34:43;5.05;;;4.18;;
43793;SDS011;29414;44.798;20.366;2022-09-17T05:38:44;6.60;;;5.22;;
43793;SDS011;29414;44.798;20.366;2022-09-17T05:42:44;5.22;;;4.78;;
43793;SDS011;29414;44.798;20.366;2022-09-17T05:46:45;6.93;;;5.60;;
43793;SDS011;29414;44.798;20.366;2022-09-17T05:50:45;5.88;;;5.28;;
43793;SDS011;29414;44.798;20.366;2022-09-17T05:54:46;9.63;;;7.35;;
43793;SDS011;29414;44.798;20.366;2022-09-17T05:58:47;6.28;;;5.63;;
43793;SDS011;29414;44.798;20.366;2022-09-17T06:02:52;8.02;;;7.22;;
43793;SDS011;29414;44.798;20.366;2022-09-17T06:06:53;7.25;;;6.55;;
43793;SDS011;29414;44.798;20.366;2022-09-17T06:10:53;7.35;;;5.60;;
43793;SDS011;29414;44.798;20.366;2022-09-17T06:14:54;7.35;;;6.15;;
43793;SDS011;29414;44.798;20.366;2022-09-17T06:18:54;6.85;;;6.00;;
43793;SDS011;29414;44.798;20.366;2022-09-17T06:22:55;7.35;;;6.30;;
43793;SDS011;29414;44.798;20.366;2022-09-17T06:26:56;11.18;;;7.05;;
43793;SDS011;29414;44.798;20.366;2022-09-17T06:31:03;7.94;;;6.62;;
43793;SDS011;29414;44.798;20.366;2022-09-17T06:35:03;8.38;;;7.10;;
43793;SDS011;29414;44.798;20.366;2022-09-17T06:39:04;8.40;;;7.07;;
43793;SDS011;29414;44.798;20.366;2022-09-17T06:43:04;9.48;;;8.52;;
43793;SDS011;29414;44.798;20.366;2022-09-17T06:47:04;9.02;;;7.97;;
43793;SDS011;29414;44.798;20.366;2022-09-17T06:51:07;9.77;;;6.65;;
43793;SDS011;29414;44.798;20.366;2022-09-17T06:55:09;6.13;;;5.63;;
43793;SDS011;29414;44.798;20.366;2022-09-17T06:59:09;7.32;;;5.63;;
43793;SDS011;29414;44.798;20.366;2022-09-17T07:03:09;5.45;;;4.95;;
43793;SDS011;29414;44.798;20.366;2022-09-17T07:07:10;8.48;;;5.68;;
43793;SDS011;29414;44.798;20.366;2022-09-17T07:11:10;13.25;;;5.60;;
43793;SDS011;29414;44.798;20.366;2022-09-17T07:15:11;7.93;;;4.78;;
43793;SDS011;29414;44.798;20.366;2022-09-17T07:19:11;8.55;;;5.82;;
43793;SDS011;29414;44.798;20.366;2022-09-17T07:23:11;5.95;;;4.57;;
43793;SDS011;29414;44.798;20.366;2022-09-17T07:27:12;5.94;;;5.30;;
43793;SDS011;29414;44.798;20.366;2022-09-17T07:31:12;6.00;;;5.50;;
43793;SDS011;29414;44.798;20.366;2022-09-17T07:35:12;5.47;;;4.97;;
43793;SDS011;29414;44.798;20.366;2022-09-17T07:39:13;9.63;;;5.00;;
43793;SDS011;29414;44.798;20.366;2022-09-17T07:43:13;11.68;;;6.22;;
43793;SDS011;29414;44.798;20.366;2022-09-17T07:47:14;8.70;;;6.15;;
43793;SDS011;29414;44.798;20.366;2022-09-17T07:51:15;7.47;;;6.15;;
43793;SDS011;29414;44.798;20.366;2022-09-17T07:55:15;7.32;;;5.80;;
43793;SDS011;29414;44.798;20.366;2022-09-17T07:59:15;8.42;;;6.60;;
43793;SDS011;29414;44.798;20.366;2022-09-17T08:03:16;6.18;;;5.57;;
43793;SDS011;29414;44.798;20.366;2022-09-17T08:07:16;8.25;;;7.13;;
43793;SDS011;29414;44.798;20.366;2022-09-17T08:11:17;6.35;;;5.75;;
43793;SDS011;29414;44.798;20.366;2022-09-17T08:15:18;7.10;;;6.43;;
43793;SDS011;29414;44.798;20.366;2022-09-17T08:19:18;7.53;;;6.55;;
43793;SDS011;29414;44.798;20.366;2022-09-17T08:23:22;6.90;;;5.85;;
43793;SDS011;29414;44.798;20.366;2022-09-17T08:27:22;6.72;;;6.13;;
43793;SDS011;29414;44.798;20.366;2022-09-17T08:31:23;6.90;;;6.20;;
43793;SDS011;29414;44.798;20.366;2022-09-17T08:35:24;7.82;;;6.53;;
43793;SDS011;29414;44.798;20.366;2022-09-17T08:39:26;6.78;;;5.55;;
43793;SDS011;29414;44.798;20.366;2022-09-17T08:43:27;6.53;;;5.93;;
43793;SDS011;29414;44.798;20.366;2022-09-17T08:47:29;6.70;;;5.85;;
43793;SDS011;29414;44.798;20.366;2022-09-17T08:51:48;9.18;;;5.35;;
43793;SDS011;29414;44.798;20.366;2022-09-17T09:00:00;7.85;;;5.78;;
43793;SDS011;29414;44.798;20.366;2022-09-17T09:04:18;5.22;;;4.70;;
43793;SDS011;29414;44.798;20.366;2022-09-17T09:12:34;5.72;;;4.57;;
43793;SDS011;29414;44.798;20.366;2022-09-17T09:16:37;8.43;;;5.47;;
43793;SDS011;29414;44.798;20.366;2022-09-17T09:25:00;5.66;;;4.90;;
43793;SDS011;29414;44.798;20.366;2022-09-17T09:29:10;5.55;;;4.70;;
43793;SDS011;29414;44.798;20.366;2022-09-17T09:33:14;5.35;;;4.85;;
43793;SDS011;29414;44.798;20.366;2022-09-17T09:37:19;4.88;;;4.47;;
43793;SDS011;29414;44.798;20.366;2022-09-17T09:54:21;4.68;;;3.78;;
43793;SDS011;29414;44.798;20.366;2022-09-17T10:02:26;5.97;;;4.53;;
43793;SDS011;29414;44.798;20.366;2022-09-17T10:06:28;4.72;;;4.25;;
43793;SDS011;29414;44.798;20.366;2022-09-17T10:10:29;4.32;;;3.30;;
43793;SDS011;29414;44.798;20.366;2022-09-17T10:14:39;4.72;;;3.17;;
43793;SDS011;29414;44.798;20.366;2022-09-17T10:18:40;3.85;;;3.55;;
43793;SDS011;29414;44.798;20.366;2022-09-17T10:22:40;5.93;;;5.30;;
43793;SDS011;29414;44.798;20.366;2022-09-17T10:26:43;5.30;;;4.88;;
43793;SDS011;29414;44.798;20.366;2022-09-17T10:30:53;4.68;;;4.28;;
43793;SDS011;29414;44.798;20.366;2022-09-17T10:35:04;5.03;;;4.18;;
43793;SDS011;29414;44.798;20.366;2022-09-17T10:43:20;4.15;;;3.58;;
43793;SDS011;29414;44.798;20.366;2022-09-17T10:47:25;7.30;;;3.85;;
43793;SDS011;29414;44.798;20.366;2022-09-17T10:51:28;6.15;;;4.35;;
43793;SDS011;29414;44.798;20.366;2022-09-17T10:59:49;4.57;;;4.15;;
43793;SDS011;29414;44.798;20.366;2022-09-17T11:08:11;4.47;;;3.97;;
43793;SDS011;29414;44.798;20.366;2022-09-17T11:12:59;4.30;;;3.92;;
43793;SDS011;29414;44.798;20.366;2022-09-17T11:16:52;5.00;;;4.50;;
43793;SDS011;29414;44.798;20.366;2022-09-17T11:25:13;6.05;;;4.35;;
43793;SDS011;29414;44.798;20.366;2022-09-17T11:34:08;8.27;;;6.78;;
43793;SDS011;29414;44.798;20.366;2022-09-17T11:38:09;6.82;;;6.13;;
43793;SDS011;29414;44.798;20.366;2022-09-17T11:42:15;4.72;;;4.32;;
43793;SDS011;29414;44.798;20.366;2022-09-17T11:46:21;5.60;;;5.07;;
43793;SDS011;29414;44.798;20.366;2022-09-17T11:50:43;3.28;;;3.08;;
43793;SDS011;29414;44.798;20.366;2022-09-17T11:54:49;4.43;;;3.22;;
43793;SDS011;29414;44.798;20.366;2022-09-17T11:58:57;3.53;;;3.22;;
43793;SDS011;29414;44.798;20.366;2022-09-17T12:03:00;2.85;;;2.63;;
43793;SDS011;29414;44.798;20.366;2022-09-17T12:11:10;6.00;;;3.52;;
43793;SDS011;29414;44.798;20.366;2022-09-17T12:15:13;4.32;;;3.97;;
43793;SDS011;29414;44.798;20.366;2022-09-17T12:23:17;4.03;;;3.33;;
43793;SDS011;29414;44.798;20.366;2022-09-17T12:31:24;4.03;;;3.47;;
43793;SDS011;29414;44.798;20.366;2022-09-17T12:52:02;5.28;;;3.17;;
43793;SDS011;29414;44.798;20.366;2022-09-17T12:56:14;5.35;;;4.85;;
43793;SDS011;29414;44.798;20.366;2022-09-17T13:00:17;4.65;;;4.28;;
43793;SDS011;29414;44.798;20.366;2022-09-17T13:04:34;4.47;;;3.78;;
43793;SDS011;29414;44.798;20.366;2022-09-17T13:17:22;5.30;;;4.00;;
43793;SDS011;29414;44.798;20.366;2022-09-17T13:25:29;6.55;;;3.72;;
43793;SDS011;29414;44.798;20.366;2022-09-17T13:30:16;4.93;;;3.53;;
43793;SDS011;29414;44.798;20.366;2022-09-17T13:33:57;4.72;;;3.88;;
43793;SDS011;29414;44.798;20.366;2022-09-17T13:37:58;5.57;;;5.07;;
43793;SDS011;29414;44.798;20.366;2022-09-17T13:42:01;7.53;;;6.03;;
43793;SDS011;29414;44.798;20.366;2022-09-17T13:46:04;7.43;;;5.63;;
43793;SDS011;29414;44.798;20.366;2022-09-17T13:50:10;4.60;;;4.20;;
43793;SDS011;29414;44.798;20.366;2022-09-17T13:54:11;5.30;;;4.68;;
43793;SDS011;29414;44.798;20.366;2022-09-17T13:58:20;6.53;;;4.60;;
43793;SDS011;29414;44.798;20.366;2022-09-17T14:02:26;6.55;;;5.95;;
43793;SDS011;29414;44.798;20.366;2022-09-17T14:10:34;5.45;;;3.72;;
43793;SDS011;29414;44.798;20.366;2022-09-17T14:14:40;4.93;;;4.35;;
43793;SDS011;29414;44.798;20.366;2022-09-17T14:18:54;4.75;;;4.35;;
43793;SDS011;29414;44.798;20.366;2022-09-17T14:22:59;4.15;;;3.85;;
43793;SDS011;29414;44.798;20.366;2022-09-17T14:31:16;3.97;;;3.58;;
43793;SDS011;29414;44.798;20.366;2022-09-17T14:35:22;3.13;;;2.92;;
43793;SDS011;29414;44.798;20.366;2022-09-17T14:39:24;3.28;;;2.97;;
43793;SDS011;29414;44.798;20.366;2022-09-17T14:47:45;5.43;;;3.53;;
43793;SDS011;29414;44.798;20.366;2022-09-17T14:51:45;5.60;;;4.68;;
43793;SDS011;29414;44.798;20.366;2022-09-17T14:55:46;4.95;;;4.30;;
43793;SDS011;29414;44.798;20.366;2022-09-17T15:03:48;4.50;;;4.03;;
43793;SDS011;29414;44.798;20.366;2022-09-17T15:07:48;6.10;;;3.88;;
43793;SDS011;29414;44.798;20.366;2022-09-17T15:11:48;3.67;;;2.90;;
43793;SDS011;29414;44.798;20.366;2022-09-17T15:15:55;3.50;;;3.13;;
43793;SDS011;29414;44.798;20.366;2022-09-17T15:19:57;4.15;;;3.08;;
43793;SDS011;29414;44.798;20.366;2022-09-17T15:24:03;5.25;;;3.53;;
43793;SDS011;29414;44.798;20.366;2022-09-17T15:28:30;4.35;;;3.90;;
43793;SDS011;29414;44.798;20.366;2022-09-17T15:32:28;3.78;;;3.35;;
43793;SDS011;29414;44.798;20.366;2022-09-17T15:36:29;4.30;;;3.78;;
43793;SDS011;29414;44.798;20.366;2022-09-17T15:40:35;4.30;;;3.75;;
43793;SDS011;29414;44.798;20.366;2022-09-17T15:44:36;5.28;;;3.45;;
43793;SDS011;29414;44.798;20.366;2022-09-17T15:48:37;3.65;;;3.28;;
43793;SDS011;29414;44.798;20.366;2022-09-17T15:52:38;5.40;;;3.30;;
43793;SDS011;29414;44.798;20.366;2022-09-17T15:56:39;2.97;;;2.78;;
43793;SDS011;29414;44.798;20.366;2022-09-17T16:00:40;3.10;;;2.50;;
43793;SDS011;29414;44.798;20.366;2022-09-17T16:04:40;2.72;;;2.35;;
43793;SDS011;29414;44.798;20.366;2022-09-17T16:08:40;2.47;;;2.22;;
43793;SDS011;29414;44.798;20.366;2022-09-17T16:12:41;3.88;;;2.83;;
43793;SDS011;29414;44.798;20.366;2022-09-17T16:16:41;3.40;;;2.35;;
43793;SDS011;29414;44.798;20.366;2022-09-17T16:20:42;8.55;;;6.93;;
43793;SDS011;29414;44.798;20.366;2022-09-17T16:24:42;2.92;;;2.40;;
43793;SDS011;29414;44.798;20.366;2022-09-17T16:28:43;2.90;;;2.15;;
43793;SDS011;29414;44.798;20.366;2022-09-17T16:32:44;2.72;;;2.38;;
43793;SDS011;29414;44.798;20.366;2022-09-17T16:36:44;2.83;;;2.45;;
43793;SDS011;29414;44.798;20.366;2022-09-17T16:40:45;4.07;;;3.50;;
43793;SDS011;29414;44.798;20.366;2022-09-17T16:44:48;3.50;;;2.67;;
43793;SDS011;29414;44.798;20.366;2022-09-17T16:48:49;3.60;;;2.45;;
43793;SDS011;29414;44.798;20.366;2022-09-17T16:52:49;3.08;;;2.65;;
43793;SDS011;29414;44.798;20.366;2022-09-17T16:56:49;6.57;;;2.45;;
43793;SDS011;29414;44.798;20.366;2022-09-17T17:00:50;3.85;;;2.65;;
43793;SDS011;29414;44.798;20.366;2022-09-17T17:04:50;3.25;;;2.90;;
43793;SDS011;29414;44.798;20.366;2022-09-17T17:08:51;3.92;;;3.55;;
43793;SDS011;29414;44.798;20.366;2022-09-17T17:12:51;4.05;;;3.60;;
43793;SDS011;29414;44.798;20.366;2022-09-17T17:16:51;4.10;;;3.35;;
43793;SDS011;29414;44.798;20.366;2022-09-17T17:20:52;3.48;;;3.04;;
43793;SDS011;29414;44.798;20.366;2022-09-17T17:24:52;4.70;;;3.80;;
43793;SDS011;29414;44.798;20.366;2022-09-17T17:28:52;3.84;;;3.28;;
43793;SDS011;29414;44.798;20.366;2022-09-17T17:32:53;3.78;;;3.42;;
43793;SDS011;29414;44.798;20.366;2022-09-17T17:36:53;4.55;;;3.13;;
43793;SDS011;29414;44.798;20.366;2022-09-17T17:41:01;3.17;;;2.80;;
43793;SDS011;29414;44.798;20.366;2022-09-17T17:45:01;2.83;;;2.55;;
43793;SDS011;29414;44.798;20.366;2022-09-17T17:49:01;4.78;;;2.42;;
43793;SDS011;29414;44.798;20.366;2022-09-17T17:53:01;3.58;;;2.10;;
43793;SDS011;29414;44.798;20.366;2022-09-17T17:57:02;2.50;;;2.30;;
43793;SDS011;29414;44.798;20.366;2022-09-17T18:01:09;3.25;;;1.98;;
43793;SDS011;29414;44.798;20.366;2022-09-17T18:05:09;3.30;;;2.08;;
43793;SDS011;29414;44.798;20.366;2022-09-17T18:09:10;2.72;;;2.35;;
43793;SDS011;29414;44.798;20.366;2022-09-17T18:13:11;2.63;;;1.80;;
43793;SDS011;29414;44.798;20.366;2022-09-17T18:17:12;5.95;;;2.72;;
43793;SDS011;29414;44.798;20.366;2022-09-17T18:21:13;3.58;;;2.74;;
43793;SDS011;29414;44.798;20.366;2022-09-17T18:25:14;2.53;;;1.58;;
43793;SDS011;29414;44.798;20.366;2022-09-17T18:29:15;2.15;;;1.80;;
43793;SDS011;29414;44.798;20.366;2022-09-17T18:33:16;2.00;;;1.23;;
43793;SDS011;29414;44.798;20.366;2022-09-17T18:37:18;3.83;;;1.30;;
43793;SDS011;29414;44.798;20.366;2022-09-17T18:41:18;4.43;;;1.13;;
43793;SDS011;29414;44.798;20.366;2022-09-17T18:45:18;2.10;;;1.85;;
43793;SDS011;29414;44.798;20.366;2022-09-17T18:49:19;4.13;;;1.30;;
43793;SDS011;29414;44.798;20.366;2022-09-17T18:53:19;2.55;;;0.95;;
43793;SDS011;29414;44.798;20.366;2022-09-17T18:57:19;1.27;;;0.85;;
43793;SDS011;29414;44.798;20.366;2022-09-17T19:01:21;1.95;;;1.27;;
43793;SDS011;29414;44.798;20.366;2022-09-17T19:05:21;1.85;;;0.88;;
43793;SDS011;29414;44.798;20.366;2022-09-17T19:09:21;3.33;;;1.60;;
43793;SDS011;29414;44.798;20.366;2022-09-17T19:13:22;2.80;;;1.38;;
43793;SDS011;29414;44.798;20.366;2022-09-17T19:17:22;2.16;;;1.60;;
43793;SDS011;29414;44.798;20.366;2022-09-17T19:21:22;3.22;;;1.65;;
43793;SDS011;29414;44.798;20.366;2022-09-17T19:25:23;4.72;;;2.17;;
43793;SDS011;29414;44.798;20.366;2022-09-17T19:29:23;4.32;;;1.50;;
43793;SDS011;29414;44.798;20.366;2022-09-17T19:33:24;2.32;;;1.14;;
43793;SDS011;29414;44.798;20.366;2022-09-17T19:37:24;2.65;;;1.60;;
43793;SDS011;29414;44.798;20.366;2022-09-17T19:41:25;2.55;;;1.38;;
43793;SDS011;29414;44.798;20.366;2022-09-17T19:45:25;3.10;;;1.50;;
43793;SDS011;29414;44.798;20.366;2022-09-17T19:49:25;2.85;;;1.48;;
43793;SDS011;29414;44.798;20.366;2022-09-17T19:53:26;3.13;;;1.45;;
43793;SDS011;29414;44.798;20.366;2022-09-17T19:57:26;4.47;;;1.60;;
43793;SDS011;29414;44.798;20.366;2022-09-17T20:01:26;1.70;;;1.35;;
43793;SDS011;29414;44.798;20.366;2022-09-17T20:05:26;2.05;;;1.13;;
43793;SDS011;29414;44.798;20.366;2022-09-17T20:09:27;2.24;;;1.28;;
43793;SDS011;29414;44.798;20.366;2022-09-17T20:13:27;6.20;;;1.40;;
43793;SDS011;29414;44.798;20.366;2022-09-17T20:17:27;2.33;;;1.10;;
43793;SDS011;29414;44.798;20.366;2022-09-17T20:21:28;2.10;;;1.88;;
43793;SDS011;29414;44.798;20.366;2022-09-17T20:25:30;2.67;;;2.15;;
43793;SDS011;29414;44.798;20.366;2022-09-17T20:29:30;3.05;;;1.50;;
43793;SDS011;29414;44.798;20.366;2022-09-17T20:33:30;3.42;;;2.30;;
43793;SDS011;29414;44.798;20.366;2022-09-17T20:37:31;3.17;;;2.28;;
43793;SDS011;29414;44.798;20.366;2022-09-17T20:41:32;1.42;;;1.20;;
43793;SDS011;29414;44.798;20.366;2022-09-17T20:45:34;2.13;;;1.77;;
43793;SDS011;29414;44.798;20.366;2022-09-17T20:49:35;1.98;;;1.58;;
43793;SDS011;29414;44.798;20.366;2022-09-17T20:53:35;5.13;;;1.52;;
43793;SDS011;29414;44.798;20.366;2022-09-17T20:57:35;1.30;;;1.20;;
43793;SDS011;29414;44.798;20.366;2022-09-17T21:01:36;2.72;;;0.74;;
43793;SDS011;29414;44.798;20.366;2022-09-17T21:05:36;0.90;;;0.70;;
43793;SDS011;29414;44.798;20.366;2022-09-17T21:09:37;2.00;;;0.55;;
43793;SDS011;29414;44.798;20.366;2022-09-17T21:13:41;2.40;;;1.20;;
43793;SDS011;29414;44.798;20.366;2022-09-17T21:17:41;1.80;;;0.93;;
43793;SDS011;29414;44.798;20.366;2022-09-17T21:21:44;3.33;;;0.43;;
43793;SDS011;29414;44.798;20.366;2022-09-17T21:25:44;2.10;;;0.77;;
43793;SDS011;29414;44.798;20.366;2022-09-17T21:29:44;2.20;;;0.70;;
43793;SDS011;29414;44.798;20.366;2022-09-17T21:33:46;1.65;;;1.08;;
43793;SDS011;29414;44.798;20.366;2022-09-17T21:37:46;1.17;;;0.90;;
43793;SDS011;29414;44.798;20.366;2022-09-17T21:41:46;2.70;;;1.10;;
43793;SDS011;29414;44.798;20.366;2022-09-17T21:46:03;1.87;;;1.10;;
43793;SDS011;29414;44.798;20.366;2022-09-17T21:54:11;2.15;;;1.52;;
43793;SDS011;29414;44.798;20.366;2022-09-17T21:58:11;2.57;;;1.07;;
43793;SDS011;29414;44.798;20.366;2022-09-17T22:02:12;2.10;;;0.50;;
43793;SDS011;29414;44.798;20.366;2022-09-17T22:06:19;1.77;;;1.30;;
43793;SDS011;29414;44.798;20.366;2022-09-17T22:10:20;1.67;;;0.93;;
43793;SDS011;29414;44.798;20.366;2022-09-17T22:14:21;2.33;;;0.75;;
43793;SDS011;29414;44.798;20.366;2022-09-17T22:18:22;1.87;;;0.70;;
43793;SDS011;29414;44.798;20.366;2022-09-17T22:22:22;0.83;;;0.67;;
43793;SDS011;29414;44.798;20.366;2022-09-17T22:26:23;0.95;;;0.60;;
43793;SDS011;29414;44.798;20.366;2022-09-17T22:30:24;2.57;;;1.20;;
43793;SDS011;29414;44.798;20.366;2022-09-17T22:34:24;1.13;;;0.80;;
43793;SDS011;29414;44.798;20.366;2022-09-17T22:38:25;3.90;;;0.87;;
43793;SDS011;29414;44.798;20.366;2022-09-17T22:42:26;1.67;;;0.80;;
43793;SDS011;29414;44.798;20.366;2022-09-17T22:46:27;1.30;;;0.87;;
43793;SDS011;29414;44.798;20.366;2022-09-17T22:50:27;1.50;;;0.80;;
43793;SDS011;29414;44.798;20.366;2022-09-17T22:54:28;0.90;;;0.60;;
43793;SDS011;29414;44.798;20.366;2022-09-17T22:58:28;1.80;;;0.77;;
43793;SDS011;29414;44.798;20.366;2022-09-17T23:02:29;1.80;;;0.73;;
43793;SDS011;29414;44.798;20.366;2022-09-17T23:06:30;1.83;;;1.17;;
43793;SDS011;29414;44.798;20.366;2022-09-17T23:10:33;3.90;;;1.20;;
43793;SDS011;29414;44.798;20.366;2022-09-17T23:14:34;1.40;;;0.80;;
43793;SDS011;29414;44.798;20.366;2022-09-17T23:18:35;1.33;;;0.83;;
43793;SDS011;29414;44.798;20.366;2022-09-17T23:22:35;2.73;;;0.80;;
43793;SDS011;29414;44.798;20.366;2022-09-17T23:26:35;2.93;;;1.20;;
43793;SDS011;29414;44.798;20.366;2022-09-17T23:30:36;1.83;;;1.27;;
43793;SDS011;29414;44.798;20.366;2022-09-17T23:34:36;2.57;;;1.00;;
43793;SDS011;29414;44.798;20.366;2022-09-17T23:38:40;7.10;;;1.63;;
43793;SDS011;29414;44.798;20.366;2022-09-17T23:42:41;1.73;;;1.10;;
43793;SDS011;29414;44.798;20.366;2022-09-17T23:46:41;1.63;;;0.90;;
43793;SDS011;29414;44.798;20.366;2022-09-17T23:50:42;5.30;;;1.03;;
43793;SDS011;29414;44.798;20.366;2022-09-17T23:54:42;1.66;;;1.10;;
43793;SDS011;29414;44.798;20.366;2022-09-17T23:58:42;5.96;;;1.12;;
